Pagrindinis puslapis
METAR-TAF:

METAR-TAF

Oro uostai :

Evenes, Norvegija

platuma: 68-31N, ilguma: 016-41E, Aukštis: 26 m

Dabartinis oras

Ataskaita buvo paskelbta 1 valandą ir 7 minutes, ne 09:20 UTC
Vėjas 2 kt iš Šiaurės
Temperatūra -13°C
Drėgmė 92%
Slėgis 982 hPa
Matomumas 10 km arba daugiau
Mažai debesys ne aukštis 2600 ft

METAR: ENEV 090920Z 01002KT 9999 FEW026 M13/M14 Q0982 RMK WIND 1400FT 29008KT

Laikas: 11:27 (10:27 UTC)

Prognozė

Ataskaita buvo paskelbta 2 valandos ir 27 minutes, ne 08:00 UTC
Prognozė galioja nuo 09 metu 09 UTC su 09 metu 18 UTC
Vėjas 5 kt nuo kintamojo kryptimis
Matomumas 10 km arba daugiau
Mažai debesys ne aukštis 2500 ft
Išsisklaidę debesys ne aukštis 5000 ft

TAF: ENEV 090800Z 0909/0918 VRB05KT 9999 FEW025 SCT050

Orai ataskaitas ir orų prognozės (METAR, TAF).

turimą stotys yra geltonos ir raudonos taškus žemėlapyje.

Perkelti pele per norėdami pamatyti stoties vardą.

Tada spustelėkite, norėdami matyti oro stebėjimo ir prognozės.

Norėdami pakeisti žemėlapį: spustelėkite ant žalios mygtukų su juodo kryžiaus žemyn,; žalią mygtuką su brūkšneliu, jei norite nutolinti; arba žalių rodyklių gretimoms žemėlapius.


METAR-TAF: